sensor_id;sensor_type;location;lat;lon;timestamp;P1;durP1;ratioP1;P2;durP2;ratioP2
11541;SDS011;5827;49.482;7.716;2022-07-04T00:01:01;3.67;;;1.50;;
11541;SDS011;5827;49.482;7.716;2022-07-04T00:03:02;2.83;;;1.47;;
11541;SDS011;5827;49.482;7.716;2022-07-04T00:05:05;3.03;;;1.70;;
11541;SDS011;5827;49.482;7.716;2022-07-04T00:07:10;2.03;;;1.30;;
11541;SDS011;5827;49.482;7.716;2022-07-04T00:09:11;2.80;;;1.40;;
11541;SDS011;5827;49.482;7.716;2022-07-04T00:11:13;1.40;;;1.30;;
11541;SDS011;5827;49.482;7.716;2022-07-04T00:13:14;1.77;;;1.30;;
11541;SDS011;5827;49.482;7.716;2022-07-04T00:15:17;1.83;;;1.23;;
11541;SDS011;5827;49.482;7.716;2022-07-04T00:17:19;3.43;;;1.37;;
11541;SDS011;5827;49.482;7.716;2022-07-04T00:19:20;3.17;;;1.33;;
11541;SDS011;5827;49.482;7.716;2022-07-04T00:21:22;3.40;;;1.20;;
11541;SDS011;5827;49.482;7.716;2022-07-04T00:23:24;2.93;;;1.43;;
11541;SDS011;5827;49.482;7.716;2022-07-04T00:25:25;6.07;;;1.70;;
11541;SDS011;5827;49.482;7.716;2022-07-04T00:27:27;2.97;;;1.40;;
11541;SDS011;5827;49.482;7.716;2022-07-04T00:29:29;2.40;;;1.37;;
11541;SDS011;5827;49.482;7.716;2022-07-04T00:31:32;2.40;;;1.10;;
11541;SDS011;5827;49.482;7.716;2022-07-04T00:33:33;1.80;;;1.20;;
11541;SDS011;5827;49.482;7.716;2022-07-04T00:35:35;1.93;;;1.30;;
11541;SDS011;5827;49.482;7.716;2022-07-04T00:37:36;1.40;;;1.10;;
11541;SDS011;5827;49.482;7.716;2022-07-04T00:39:38;1.90;;;1.30;;
11541;SDS011;5827;49.482;7.716;2022-07-04T00:41:40;4.33;;;1.57;;
11541;SDS011;5827;49.482;7.716;2022-07-04T00:43:41;1.20;;;1.10;;
11541;SDS011;5827;49.482;7.716;2022-07-04T00:45:43;1.40;;;1.27;;
11541;SDS011;5827;49.482;7.716;2022-07-04T00:47:46;2.30;;;1.50;;
11541;SDS011;5827;49.482;7.716;2022-07-04T00:49:47;2.23;;;1.37;;
11541;SDS011;5827;49.482;7.716;2022-07-04T00:51:49;1.90;;;1.30;;
11541;SDS011;5827;49.482;7.716;2022-07-04T00:53:51;2.43;;;1.30;;
11541;SDS011;5827;49.482;7.716;2022-07-04T00:55:54;2.17;;;1.30;;
11541;SDS011;5827;49.482;7.716;2022-07-04T00:57:56;1.77;;;1.30;;
11541;SDS011;5827;49.482;7.716;2022-07-04T00:59:57;2.57;;;1.30;;
11541;SDS011;5827;49.482;7.716;2022-07-04T01:01:59;3.17;;;1.40;;
11541;SDS011;5827;49.482;7.716;2022-07-04T01:04:02;2.00;;;1.40;;
11541;SDS011;5827;49.482;7.716;2022-07-04T01:06:05;2.00;;;1.30;;
11541;SDS011;5827;49.482;7.716;2022-07-04T01:08:08;2.47;;;1.30;;
11541;SDS011;5827;49.482;7.716;2022-07-04T01:10:12;2.13;;;1.10;;
11541;SDS011;5827;49.482;7.716;2022-07-04T01:12:23;4.20;;;1.50;;
11541;SDS011;5827;49.482;7.716;2022-07-04T01:14:26;2.47;;;1.30;;
11541;SDS011;5827;49.482;7.716;2022-07-04T01:16:28;3.50;;;1.50;;
11541;SDS011;5827;49.482;7.716;2022-07-04T01:18:29;2.27;;;1.37;;
11541;SDS011;5827;49.482;7.716;2022-07-04T01:20:36;3.20;;;1.50;;
11541;SDS011;5827;49.482;7.716;2022-07-04T01:22:37;2.30;;;1.40;;
11541;SDS011;5827;49.482;7.716;2022-07-04T01:24:39;4.40;;;1.70;;
11541;SDS011;5827;49.482;7.716;2022-07-04T01:26:41;1.70;;;1.30;;
11541;SDS011;5827;49.482;7.716;2022-07-04T01:28:43;3.30;;;1.43;;
11541;SDS011;5827;49.482;7.716;2022-07-04T01:30:44;2.97;;;1.43;;
11541;SDS011;5827;49.482;7.716;2022-07-04T01:32:46;4.97;;;1.30;;
11541;SDS011;5827;49.482;7.716;2022-07-04T01:34:48;3.20;;;1.50;;
11541;SDS011;5827;49.482;7.716;2022-07-04T01:36:51;1.93;;;1.40;;
11541;SDS011;5827;49.482;7.716;2022-07-04T01:38:52;2.77;;;1.43;;
11541;SDS011;5827;49.482;7.716;2022-07-04T01:40:54;2.50;;;1.70;;
11541;SDS011;5827;49.482;7.716;2022-07-04T01:42:56;2.00;;;1.50;;
11541;SDS011;5827;49.482;7.716;2022-07-04T01:44:58;4.63;;;1.97;;
11541;SDS011;5827;49.482;7.716;2022-07-04T01:47:00;2.63;;;1.50;;
11541;SDS011;5827;49.482;7.716;2022-07-04T01:49:02;2.93;;;1.40;;
11541;SDS011;5827;49.482;7.716;2022-07-04T01:51:03;3.80;;;1.50;;
11541;SDS011;5827;49.482;7.716;2022-07-04T01:53:06;3.60;;;1.57;;
11541;SDS011;5827;49.482;7.716;2022-07-04T01:55:08;1.87;;;1.37;;
11541;SDS011;5827;49.482;7.716;2022-07-04T01:57:10;3.30;;;1.70;;
11541;SDS011;5827;49.482;7.716;2022-07-04T01:59:12;1.60;;;1.50;;
11541;SDS011;5827;49.482;7.716;2022-07-04T02:01:14;1.53;;;1.43;;
11541;SDS011;5827;49.482;7.716;2022-07-04T02:03:36;2.83;;;2.03;;
11541;SDS011;5827;49.482;7.716;2022-07-04T02:05:38;1.77;;;1.67;;
11541;SDS011;5827;49.482;7.716;2022-07-04T02:07:40;1.60;;;1.50;;
11541;SDS011;5827;49.482;7.716;2022-07-04T02:09:43;2.10;;;1.50;;
11541;SDS011;5827;49.482;7.716;2022-07-04T02:11:45;2.93;;;1.50;;
11541;SDS011;5827;49.482;7.716;2022-07-04T02:14:05;3.50;;;1.70;;
11541;SDS011;5827;49.482;7.716;2022-07-04T02:16:06;2.50;;;1.50;;
11541;SDS011;5827;49.482;7.716;2022-07-04T02:18:08;3.43;;;1.50;;
11541;SDS011;5827;49.482;7.716;2022-07-04T02:20:11;3.03;;;1.57;;
11541;SDS011;5827;49.482;7.716;2022-07-04T02:22:13;1.93;;;1.50;;
11541;SDS011;5827;49.482;7.716;2022-07-04T02:24:14;2.17;;;1.57;;
11541;SDS011;5827;49.482;7.716;2022-07-04T02:26:18;2.47;;;1.80;;
11541;SDS011;5827;49.482;7.716;2022-07-04T02:28:19;2.40;;;1.60;;
11541;SDS011;5827;49.482;7.716;2022-07-04T02:30:21;2.07;;;1.40;;
11541;SDS011;5827;49.482;7.716;2022-07-04T02:32:23;3.37;;;1.50;;
11541;SDS011;5827;49.482;7.716;2022-07-04T02:34:26;2.13;;;1.80;;
11541;SDS011;5827;49.482;7.716;2022-07-04T02:36:27;1.70;;;1.57;;
11541;SDS011;5827;49.482;7.716;2022-07-04T02:38:32;2.90;;;1.80;;
11541;SDS011;5827;49.482;7.716;2022-07-04T02:40:34;2.70;;;1.70;;
11541;SDS011;5827;49.482;7.716;2022-07-04T02:42:37;3.93;;;1.93;;
11541;SDS011;5827;49.482;7.716;2022-07-04T02:44:39;3.30;;;2.00;;
11541;SDS011;5827;49.482;7.716;2022-07-04T02:46:41;1.53;;;1.40;;
11541;SDS011;5827;49.482;7.716;2022-07-04T02:48:43;4.07;;;1.70;;
11541;SDS011;5827;49.482;7.716;2022-07-04T02:50:44;1.73;;;1.40;;
11541;SDS011;5827;49.482;7.716;2022-07-04T02:52:46;1.80;;;1.70;;
11541;SDS011;5827;49.482;7.716;2022-07-04T02:54:47;3.43;;;1.70;;
11541;SDS011;5827;49.482;7.716;2022-07-04T02:56:49;1.77;;;1.67;;
11541;SDS011;5827;49.482;7.716;2022-07-04T02:58:52;1.80;;;1.40;;
11541;SDS011;5827;49.482;7.716;2022-07-04T03:00:54;2.80;;;1.57;;
11541;SDS011;5827;49.482;7.716;2022-07-04T03:02:55;2.17;;;1.63;;
11541;SDS011;5827;49.482;7.716;2022-07-04T03:04:57;1.80;;;1.70;;
11541;SDS011;5827;49.482;7.716;2022-07-04T03:06:58;1.70;;;1.60;;
11541;SDS011;5827;49.482;7.716;2022-07-04T03:09:00;3.13;;;1.70;;
11541;SDS011;5827;49.482;7.716;2022-07-04T03:11:02;1.60;;;1.50;;
11541;SDS011;5827;49.482;7.716;2022-07-04T03:13:03;2.97;;;1.60;;
11541;SDS011;5827;49.482;7.716;2022-07-04T03:15:07;3.43;;;1.60;;
11541;SDS011;5827;49.482;7.716;2022-07-04T03:17:09;2.43;;;1.73;;
11541;SDS011;5827;49.482;7.716;2022-07-04T03:19:10;3.03;;;1.70;;
11541;SDS011;5827;49.482;7.716;2022-07-04T03:21:12;2.17;;;1.73;;
11541;SDS011;5827;49.482;7.716;2022-07-04T03:23:13;1.50;;;1.40;;
11541;SDS011;5827;49.482;7.716;2022-07-04T03:25:15;2.30;;;1.70;;
11541;SDS011;5827;49.482;7.716;2022-07-04T03:27:16;1.60;;;1.50;;
11541;SDS011;5827;49.482;7.716;2022-07-04T03:29:18;1.83;;;1.70;;
11541;SDS011;5827;49.482;7.716;2022-07-04T03:31:21;4.97;;;1.70;;
11541;SDS011;5827;49.482;7.716;2022-07-04T03:33:23;1.93;;;1.50;;
11541;SDS011;5827;49.482;7.716;2022-07-04T03:35:24;2.57;;;1.70;;
11541;SDS011;5827;49.482;7.716;2022-07-04T03:37:26;2.63;;;1.93;;
11541;SDS011;5827;49.482;7.716;2022-07-04T03:39:28;2.93;;;2.00;;
11541;SDS011;5827;49.482;7.716;2022-07-04T03:41:29;3.43;;;1.90;;
11541;SDS011;5827;49.482;7.716;2022-07-04T03:43:31;2.17;;;1.70;;
11541;SDS011;5827;49.482;7.716;2022-07-04T03:45:33;1.97;;;1.70;;
11541;SDS011;5827;49.482;7.716;2022-07-04T03:47:36;2.90;;;1.60;;
11541;SDS011;5827;49.482;7.716;2022-07-04T03:49:37;4.90;;;1.90;;
11541;SDS011;5827;49.482;7.716;2022-07-04T03:51:39;2.03;;;1.73;;
11541;SDS011;5827;49.482;7.716;2022-07-04T03:53:41;2.70;;;2.00;;
11541;SDS011;5827;49.482;7.716;2022-07-04T03:55:43;3.50;;;1.97;;
11541;SDS011;5827;49.482;7.716;2022-07-04T03:57:45;4.30;;;1.70;;
11541;SDS011;5827;49.482;7.716;2022-07-04T03:59:46;2.80;;;1.87;;
11541;SDS011;5827;49.482;7.716;2022-07-04T04:01:48;2.70;;;2.17;;
11541;SDS011;5827;49.482;7.716;2022-07-04T04:03:51;2.77;;;1.93;;
11541;SDS011;5827;49.482;7.716;2022-07-04T04:06:10;3.87;;;2.00;;
11541;SDS011;5827;49.482;7.716;2022-07-04T04:08:12;3.43;;;2.40;;
11541;SDS011;5827;49.482;7.716;2022-07-04T04:10:13;4.00;;;2.10;;
11541;SDS011;5827;49.482;7.716;2022-07-04T04:12:15;5.23;;;2.23;;
11541;SDS011;5827;49.482;7.716;2022-07-04T04:14:17;1.97;;;1.80;;
11541;SDS011;5827;49.482;7.716;2022-07-04T04:16:18;3.10;;;2.17;;
11541;SDS011;5827;49.482;7.716;2022-07-04T04:18:21;2.03;;;1.83;;
11541;SDS011;5827;49.482;7.716;2022-07-04T04:20:24;3.57;;;2.10;;
11541;SDS011;5827;49.482;7.716;2022-07-04T04:22:27;3.27;;;2.30;;
11541;SDS011;5827;49.482;7.716;2022-07-04T04:24:28;3.27;;;2.00;;
11541;SDS011;5827;49.482;7.716;2022-07-04T04:26:30;3.07;;;2.27;;
11541;SDS011;5827;49.482;7.716;2022-07-04T04:28:32;3.63;;;2.03;;
11541;SDS011;5827;49.482;7.716;2022-07-04T04:30:34;2.40;;;2.17;;
11541;SDS011;5827;49.482;7.716;2022-07-04T04:32:35;2.80;;;2.10;;
11541;SDS011;5827;49.482;7.716;2022-07-04T04:34:37;2.40;;;2.20;;
11541;SDS011;5827;49.482;7.716;2022-07-04T04:36:40;3.33;;;1.80;;
11541;SDS011;5827;49.482;7.716;2022-07-04T04:38:41;3.03;;;2.20;;
11541;SDS011;5827;49.482;7.716;2022-07-04T04:40:43;2.33;;;1.97;;
11541;SDS011;5827;49.482;7.716;2022-07-04T04:42:45;3.50;;;2.27;;
11541;SDS011;5827;49.482;7.716;2022-07-04T04:44:46;3.97;;;2.67;;
11541;SDS011;5827;49.482;7.716;2022-07-04T04:46:48;5.53;;;2.03;;
11541;SDS011;5827;49.482;7.716;2022-07-04T04:48:49;6.53;;;2.03;;
11541;SDS011;5827;49.482;7.716;2022-07-04T04:50:51;2.43;;;1.80;;
11541;SDS011;5827;49.482;7.716;2022-07-04T04:52:54;3.83;;;2.27;;
11541;SDS011;5827;49.482;7.716;2022-07-04T04:54:55;2.20;;;2.00;;
11541;SDS011;5827;49.482;7.716;2022-07-04T04:56:57;2.63;;;1.80;;
11541;SDS011;5827;49.482;7.716;2022-07-04T04:58:58;2.70;;;1.73;;
11541;SDS011;5827;49.482;7.716;2022-07-04T05:01:00;3.10;;;1.80;;
11541;SDS011;5827;49.482;7.716;2022-07-04T05:03:02;2.30;;;1.70;;
11541;SDS011;5827;49.482;7.716;2022-07-04T05:05:04;3.93;;;1.77;;
11541;SDS011;5827;49.482;7.716;2022-07-04T05:07:06;2.53;;;1.80;;
11541;SDS011;5827;49.482;7.716;2022-07-04T05:09:09;2.37;;;1.90;;
11541;SDS011;5827;49.482;7.716;2022-07-04T05:11:10;1.90;;;1.80;;
11541;SDS011;5827;49.482;7.716;2022-07-04T05:13:12;3.37;;;1.80;;
11541;SDS011;5827;49.482;7.716;2022-07-04T05:15:13;2.60;;;1.60;;
11541;SDS011;5827;49.482;7.716;2022-07-04T05:17:15;1.77;;;1.50;;
11541;SDS011;5827;49.482;7.716;2022-07-04T05:19:16;4.87;;;2.10;;
11541;SDS011;5827;49.482;7.716;2022-07-04T05:21:18;1.90;;;1.70;;
11541;SDS011;5827;49.482;7.716;2022-07-04T05:23:20;2.20;;;1.70;;
11541;SDS011;5827;49.482;7.716;2022-07-04T05:25:23;5.97;;;1.63;;
11541;SDS011;5827;49.482;7.716;2022-07-04T05:27:24;2.43;;;1.63;;
11541;SDS011;5827;49.482;7.716;2022-07-04T05:29:26;5.03;;;2.00;;
11541;SDS011;5827;49.482;7.716;2022-07-04T05:31:28;5.37;;;2.00;;
11541;SDS011;5827;49.482;7.716;2022-07-04T05:33:30;3.63;;;1.70;;
11541;SDS011;5827;49.482;7.716;2022-07-04T05:35:31;4.53;;;1.97;;
11541;SDS011;5827;49.482;7.716;2022-07-04T05:37:33;3.43;;;1.60;;
11541;SDS011;5827;49.482;7.716;2022-07-04T05:39:35;3.90;;;1.97;;
11541;SDS011;5827;49.482;7.716;2022-07-04T05:41:38;3.97;;;1.90;;
11541;SDS011;5827;49.482;7.716;2022-07-04T05:43:40;2.50;;;1.60;;
11541;SDS011;5827;49.482;7.716;2022-07-04T05:45:41;4.53;;;1.70;;
11541;SDS011;5827;49.482;7.716;2022-07-04T05:47:43;2.23;;;1.90;;
11541;SDS011;5827;49.482;7.716;2022-07-04T05:49:45;3.73;;;1.73;;
11541;SDS011;5827;49.482;7.716;2022-07-04T05:51:46;1.90;;;1.70;;
11541;SDS011;5827;49.482;7.716;2022-07-04T05:53:48;1.70;;;1.60;;
11541;SDS011;5827;49.482;7.716;2022-07-04T05:55:50;1.93;;;1.53;;
11541;SDS011;5827;49.482;7.716;2022-07-04T05:57:52;4.70;;;1.70;;
11541;SDS011;5827;49.482;7.716;2022-07-04T05:59:54;2.87;;;1.70;;
11541;SDS011;5827;49.482;7.716;2022-07-04T06:01:56;3.70;;;1.53;;
11541;SDS011;5827;49.482;7.716;2022-07-04T06:03:57;4.77;;;1.60;;
11541;SDS011;5827;49.482;7.716;2022-07-04T06:05:59;5.03;;;2.07;;
11541;SDS011;5827;49.482;7.716;2022-07-04T06:08:00;3.37;;;1.70;;
11541;SDS011;5827;49.482;7.716;2022-07-04T06:10:02;3.13;;;1.70;;
11541;SDS011;5827;49.482;7.716;2022-07-04T06:12:04;2.63;;;1.70;;
11541;SDS011;5827;49.482;7.716;2022-07-04T06:14:08;5.30;;;1.70;;
11541;SDS011;5827;49.482;7.716;2022-07-04T06:16:09;3.40;;;1.60;;
11541;SDS011;5827;49.482;7.716;2022-07-04T06:18:11;3.07;;;1.90;;
11541;SDS011;5827;49.482;7.716;2022-07-04T06:20:13;5.10;;;1.70;;
11541;SDS011;5827;49.482;7.716;2022-07-04T06:22:15;2.40;;;1.70;;
11541;SDS011;5827;49.482;7.716;2022-07-04T06:24:17;3.00;;;1.67;;
11541;SDS011;5827;49.482;7.716;2022-07-04T06:26:18;2.20;;;1.67;;
11541;SDS011;5827;49.482;7.716;2022-07-04T06:28:20;2.57;;;1.77;;
11541;SDS011;5827;49.482;7.716;2022-07-04T06:30:22;2.60;;;1.90;;
11541;SDS011;5827;49.482;7.716;2022-07-04T06:32:24;5.53;;;1.90;;
11541;SDS011;5827;49.482;7.716;2022-07-04T06:34:25;5.17;;;1.80;;
11541;SDS011;5827;49.482;7.716;2022-07-04T06:36:59;4.03;;;1.80;;
11541;SDS011;5827;49.482;7.716;2022-07-04T06:39:01;3.37;;;2.10;;
11541;SDS011;5827;49.482;7.716;2022-07-04T06:41:03;3.90;;;1.60;;
11541;SDS011;5827;49.482;7.716;2022-07-04T06:43:04;3.57;;;1.40;;
11541;SDS011;5827;49.482;7.716;2022-07-04T06:45:06;2.57;;;1.60;;
11541;SDS011;5827;49.482;7.716;2022-07-04T06:47:10;2.87;;;1.70;;
11541;SDS011;5827;49.482;7.716;2022-07-04T06:49:11;4.17;;;1.70;;
11541;SDS011;5827;49.482;7.716;2022-07-04T06:51:13;2.60;;;1.80;;
11541;SDS011;5827;49.482;7.716;2022-07-04T06:53:15;1.63;;;1.37;;
11541;SDS011;5827;49.482;7.716;2022-07-04T06:55:16;3.63;;;1.80;;
11541;SDS011;5827;49.482;7.716;2022-07-04T06:57:18;2.20;;;1.70;;
11541;SDS011;5827;49.482;7.716;2022-07-04T06:59:19;4.00;;;1.90;;
11541;SDS011;5827;49.482;7.716;2022-07-04T07:01:21;5.53;;;1.80;;
11541;SDS011;5827;49.482;7.716;2022-07-04T07:03:23;2.97;;;1.70;;
11541;SDS011;5827;49.482;7.716;2022-07-04T07:05:27;4.20;;;1.83;;
11541;SDS011;5827;49.482;7.716;2022-07-04T07:07:29;2.97;;;1.60;;
11541;SDS011;5827;49.482;7.716;2022-07-04T07:09:31;2.43;;;1.60;;
11541;SDS011;5827;49.482;7.716;2022-07-04T07:11:32;4.40;;;1.70;;
11541;SDS011;5827;49.482;7.716;2022-07-04T07:13:34;2.97;;;1.73;;
11541;SDS011;5827;49.482;7.716;2022-07-04T07:15:35;3.33;;;1.57;;
11541;SDS011;5827;49.482;7.716;2022-07-04T07:17:37;3.00;;;1.40;;
11541;SDS011;5827;49.482;7.716;2022-07-04T07:19:40;2.20;;;1.70;;
11541;SDS011;5827;49.482;7.716;2022-07-04T07:21:42;5.80;;;1.73;;
11541;SDS011;5827;49.482;7.716;2022-07-04T07:23:44;1.67;;;1.20;;
11541;SDS011;5827;49.482;7.716;2022-07-04T07:25:45;2.23;;;1.40;;
11541;SDS011;5827;49.482;7.716;2022-07-04T07:27:47;3.97;;;1.40;;
11541;SDS011;5827;49.482;7.716;2022-07-04T07:29:49;2.53;;;1.60;;
11541;SDS011;5827;49.482;7.716;2022-07-04T07:31:50;2.63;;;1.80;;
11541;SDS011;5827;49.482;7.716;2022-07-04T07:33:52;4.23;;;1.40;;
11541;SDS011;5827;49.482;7.716;2022-07-04T07:35:55;2.33;;;1.67;;
11541;SDS011;5827;49.482;7.716;2022-07-04T07:37:56;3.43;;;1.60;;
11541;SDS011;5827;49.482;7.716;2022-07-04T07:39:58;4.33;;;1.37;;
11541;SDS011;5827;49.482;7.716;2022-07-04T07:41:59;2.90;;;1.43;;
11541;SDS011;5827;49.482;7.716;2022-07-04T07:44:01;2.97;;;1.57;;
11541;SDS011;5827;49.482;7.716;2022-07-04T07:46:03;3.73;;;1.50;;
11541;SDS011;5827;49.482;7.716;2022-07-04T07:48:06;3.83;;;1.60;;
11541;SDS011;5827;49.482;7.716;2022-07-04T07:50:07;2.07;;;1.40;;
11541;SDS011;5827;49.482;7.716;2022-07-04T07:52:11;3.03;;;1.30;;
11541;SDS011;5827;49.482;7.716;2022-07-04T07:54:15;3.35;;;1.33;;
11541;SDS011;5827;49.482;7.716;2022-07-04T07:56:17;2.35;;;1.52;;
11541;SDS011;5827;49.482;7.716;2022-07-04T07:58:19;1.40;;;1.30;;
11541;SDS011;5827;49.482;7.716;2022-07-04T08:00:21;3.85;;;1.63;;
11541;SDS011;5827;49.482;7.716;2022-07-04T08:02:22;2.85;;;1.60;;
11541;SDS011;5827;49.482;7.716;2022-07-04T08:04:45;3.78;;;1.50;;
11541;SDS011;5827;49.482;7.716;2022-07-04T08:06:46;2.80;;;1.60;;
11541;SDS011;5827;49.482;7.716;2022-07-04T08:08:49;3.45;;;1.65;;
11541;SDS011;5827;49.482;7.716;2022-07-04T08:10:51;4.40;;;1.33;;
11541;SDS011;5827;49.482;7.716;2022-07-04T08:12:52;1.92;;;1.27;;
11541;SDS011;5827;49.482;7.716;2022-07-04T08:14:56;3.97;;;1.77;;
11541;SDS011;5827;49.482;7.716;2022-07-04T08:16:58;6.10;;;1.60;;
11541;SDS011;5827;49.482;7.716;2022-07-04T08:19:00;4.45;;;1.90;;
11541;SDS011;5827;49.482;7.716;2022-07-04T08:21:03;3.10;;;1.47;;
11541;SDS011;5827;49.482;7.716;2022-07-04T08:23:05;2.97;;;1.60;;
11541;SDS011;5827;49.482;7.716;2022-07-04T08:25:08;1.55;;;1.38;;
11541;SDS011;5827;49.482;7.716;2022-07-04T08:27:10;2.95;;;1.40;;
11541;SDS011;5827;49.482;7.716;2022-07-04T08:29:12;3.47;;;1.52;;
11541;SDS011;5827;49.482;7.716;2022-07-04T08:31:13;3.00;;;1.45;;
11541;SDS011;5827;49.482;7.716;2022-07-04T08:33:15;2.77;;;1.50;;
11541;SDS011;5827;49.482;7.716;2022-07-04T08:35:17;2.73;;;1.30;;
11541;SDS011;5827;49.482;7.716;2022-07-04T08:37:18;2.10;;;1.30;;
11541;SDS011;5827;49.482;7.716;2022-07-04T08:39:20;1.77;;;1.33;;
11541;SDS011;5827;49.482;7.716;2022-07-04T08:41:23;4.32;;;1.40;;
11541;SDS011;5827;49.482;7.716;2022-07-04T08:43:25;2.72;;;1.20;;
11541;SDS011;5827;49.482;7.716;2022-07-04T08:45:28;2.63;;;1.42;;
11541;SDS011;5827;49.482;7.716;2022-07-04T08:47:33;1.92;;;1.30;;
11541;SDS011;5827;49.482;7.716;2022-07-04T08:49:38;2.28;;;1.48;;
11541;SDS011;5827;49.482;7.716;2022-07-04T08:51:46;4.68;;;1.60;;
11541;SDS011;5827;49.482;7.716;2022-07-04T08:53:53;2.75;;;1.40;;
11541;SDS011;5827;49.482;7.716;2022-07-04T08:55:58;3.05;;;1.33;;
11541;SDS011;5827;49.482;7.716;2022-07-04T08:58:19;4.63;;;1.52;;
11541;SDS011;5827;49.482;7.716;2022-07-04T09:00:29;4.50;;;1.35;;
11541;SDS011;5827;49.482;7.716;2022-07-04T09:02:31;3.10;;;1.30;;
11541;SDS011;5827;49.482;7.716;2022-07-04T09:04:34;2.70;;;1.30;;
11541;SDS011;5827;49.482;7.716;2022-07-04T09:06:36;2.05;;;1.40;;
11541;SDS011;5827;49.482;7.716;2022-07-04T09:08:38;2.75;;;1.65;;
11541;SDS011;5827;49.482;7.716;2022-07-04T09:10:41;3.20;;;1.23;;
11541;SDS011;5827;49.482;7.716;2022-07-04T09:12:42;2.53;;;1.20;;
11541;SDS011;5827;49.482;7.716;2022-07-04T09:14:45;3.28;;;1.15;;
11541;SDS011;5827;49.482;7.716;2022-07-04T09:16:47;2.25;;;1.20;;
11541;SDS011;5827;49.482;7.716;2022-07-04T09:18:51;3.05;;;1.50;;
11541;SDS011;5827;49.482;7.716;2022-07-04T09:20:55;3.00;;;1.40;;
11541;SDS011;5827;49.482;7.716;2022-07-04T09:22:58;4.65;;;1.20;;
11541;SDS011;5827;49.482;7.716;2022-07-04T09:25:00;1.48;;;1.38;;
11541;SDS011;5827;49.482;7.716;2022-07-04T09:27:07;1.90;;;1.30;;
11541;SDS011;5827;49.482;7.716;2022-07-04T09:29:08;1.75;;;1.08;;
11541;SDS011;5827;49.482;7.716;2022-07-04T09:31:15;3.95;;;1.40;;
11541;SDS011;5827;49.482;7.716;2022-07-04T09:33:18;2.08;;;1.20;;
11541;SDS011;5827;49.482;7.716;2022-07-04T09:35:21;2.75;;;1.27;;
11541;SDS011;5827;49.482;7.716;2022-07-04T09:37:28;2.25;;;1.05;;
11541;SDS011;5827;49.482;7.716;2022-07-04T09:39:34;1.67;;;1.30;;
11541;SDS011;5827;49.482;7.716;2022-07-04T09:41:49;3.08;;;1.27;;
11541;SDS011;5827;49.482;7.716;2022-07-04T09:43:58;2.50;;;1.35;;
11541;SDS011;5827;49.482;7.716;2022-07-04T09:46:00;2.05;;;1.35;;
11541;SDS011;5827;49.482;7.716;2022-07-04T09:48:04;2.95;;;1.00;;
11541;SDS011;5827;49.482;7.716;2022-07-04T09:50:06;1.98;;;1.20;;
11541;SDS011;5827;49.482;7.716;2022-07-04T09:52:09;3.25;;;1.20;;
11541;SDS011;5827;49.482;7.716;2022-07-04T09:54:15;5.20;;;1.20;;
11541;SDS011;5827;49.482;7.716;2022-07-04T09:56:19;3.50;;;1.00;;
11541;SDS011;5827;49.482;7.716;2022-07-04T09:58:39;3.55;;;1.20;;
11541;SDS011;5827;49.482;7.716;2022-07-04T10:00:59;4.32;;;1.30;;
11541;SDS011;5827;49.482;7.716;2022-07-04T10:03:18;2.25;;;1.20;;
11541;SDS011;5827;49.482;7.716;2022-07-04T10:05:22;3.42;;;1.08;;
11541;SDS011;5827;49.482;7.716;2022-07-04T10:07:32;1.83;;;1.50;;
11541;SDS011;5827;49.482;7.716;2022-07-04T10:09:36;4.35;;;1.50;;
11541;SDS011;5827;49.482;7.716;2022-07-04T10:11:38;3.40;;;1.08;;
11541;SDS011;5827;49.482;7.716;2022-07-04T10:13:40;2.38;;;1.40;;
11541;SDS011;5827;49.482;7.716;2022-07-04T10:15:42;2.60;;;1.63;;
11541;SDS011;5827;49.482;7.716;2022-07-04T10:17:44;3.55;;;1.42;;
11541;SDS011;5827;49.482;7.716;2022-07-04T10:19:47;4.70;;;1.50;;
11541;SDS011;5827;49.482;7.716;2022-07-04T10:21:50;1.55;;;1.20;;
11541;SDS011;5827;49.482;7.716;2022-07-04T10:23:52;2.15;;;1.20;;
11541;SDS011;5827;49.482;7.716;2022-07-04T10:25:54;2.10;;;1.20;;
11541;SDS011;5827;49.482;7.716;2022-07-04T10:27:55;1.33;;;1.00;;
11541;SDS011;5827;49.482;7.716;2022-07-04T10:29:58;2.65;;;1.10;;
11541;SDS011;5827;49.482;7.716;2022-07-04T10:32:00;2.67;;;1.17;;
11541;SDS011;5827;49.482;7.716;2022-07-04T10:34:02;2.13;;;1.00;;
11541;SDS011;5827;49.482;7.716;2022-07-04T10:36:14;2.25;;;1.27;;
11541;SDS011;5827;49.482;7.716;2022-07-04T10:38:17;5.32;;;1.30;;
11541;SDS011;5827;49.482;7.716;2022-07-04T10:42:43;2.25;;;1.20;;
11541;SDS011;5827;49.482;7.716;2022-07-04T10:44:46;4.28;;;1.30;;
11541;SDS011;5827;49.482;7.716;2022-07-04T10:46:50;1.25;;;1.17;;
11541;SDS011;5827;49.482;7.716;2022-07-04T10:48:57;2.25;;;1.13;;
11541;SDS011;5827;49.482;7.716;2022-07-04T10:51:00;3.03;;;1.20;;
11541;SDS011;5827;49.482;7.716;2022-07-04T10:53:10;4.10;;;1.00;;
11541;SDS011;5827;49.482;7.716;2022-07-04T10:55:12;1.77;;;1.10;;
11541;SDS011;5827;49.482;7.716;2022-07-04T10:57:15;1.70;;;1.13;;
11541;SDS011;5827;49.482;7.716;2022-07-04T10:59:19;5.32;;;1.30;;
11541;SDS011;5827;49.482;7.716;2022-07-04T11:01:22;1.92;;;1.13;;
11541;SDS011;5827;49.482;7.716;2022-07-04T11:03:24;3.53;;;1.40;;
11541;SDS011;5827;49.482;7.716;2022-07-04T11:05:30;2.85;;;1.30;;
11541;SDS011;5827;49.482;7.716;2022-07-04T11:12:23;1.33;;;1.17;;
11541;SDS011;5827;49.482;7.716;2022-07-04T11:14:34;1.40;;;1.30;;
11541;SDS011;5827;49.482;7.716;2022-07-04T11:16:50;3.15;;;1.10;;
11541;SDS011;5827;49.482;7.716;2022-07-04T11:18:53;1.10;;;1.00;;
11541;SDS011;5827;49.482;7.716;2022-07-04T11:20:54;2.60;;;1.13;;
11541;SDS011;5827;49.482;7.716;2022-07-04T11:23:02;1.27;;;1.17;;
11541;SDS011;5827;49.482;7.716;2022-07-04T11:25:05;2.92;;;1.10;;
11541;SDS011;5827;49.482;7.716;2022-07-04T11:27:08;4.00;;;1.30;;
11541;SDS011;5827;49.482;7.716;2022-07-04T11:29:11;1.40;;;1.23;;
11541;SDS011;5827;49.482;7.716;2022-07-04T11:31:13;3.70;;;1.23;;
11541;SDS011;5827;49.482;7.716;2022-07-04T11:33:16;1.80;;;0.98;;
11541;SDS011;5827;49.482;7.716;2022-07-04T11:35:20;3.33;;;1.40;;
11541;SDS011;5827;49.482;7.716;2022-07-04T11:37:22;2.92;;;1.27;;
11541;SDS011;5827;49.482;7.716;2022-07-04T11:39:24;2.40;;;1.17;;
11541;SDS011;5827;49.482;7.716;2022-07-04T11:41:26;3.00;;;1.25;;
11541;SDS011;5827;49.482;7.716;2022-07-04T11:43:47;2.40;;;1.13;;
11541;SDS011;5827;49.482;7.716;2022-07-04T11:46:09;3.33;;;1.33;;
11541;SDS011;5827;49.482;7.716;2022-07-04T11:48:19;1.95;;;0.93;;
11541;SDS011;5827;49.482;7.716;2022-07-04T11:50:21;3.42;;;1.10;;
11541;SDS011;5827;49.482;7.716;2022-07-04T11:52:23;1.00;;;1.00;;
11541;SDS011;5827;49.482;7.716;2022-07-04T11:54:25;2.33;;;1.27;;
11541;SDS011;5827;49.482;7.716;2022-07-04T11:56:27;2.03;;;1.23;;
11541;SDS011;5827;49.482;7.716;2022-07-04T11:58:37;3.67;;;1.10;;
11541;SDS011;5827;49.482;7.716;2022-07-04T12:00:41;2.00;;;1.10;;
11541;SDS011;5827;49.482;7.716;2022-07-04T12:02:43;2.30;;;1.10;;
11541;SDS011;5827;49.482;7.716;2022-07-04T12:04:46;1.65;;;1.00;;
11541;SDS011;5827;49.482;7.716;2022-07-04T12:06:48;1.38;;;0.98;;
11541;SDS011;5827;49.482;7.716;2022-07-04T12:08:50;4.13;;;1.30;;
11541;SDS011;5827;49.482;7.716;2022-07-04T12:10:51;1.63;;;1.00;;
11541;SDS011;5827;49.482;7.716;2022-07-04T12:12:54;1.98;;;1.17;;
11541;SDS011;5827;49.482;7.716;2022-07-04T12:14:57;2.80;;;1.20;;
11541;SDS011;5827;49.482;7.716;2022-07-04T12:17:12;2.63;;;1.40;;
11541;SDS011;5827;49.482;7.716;2022-07-04T12:19:16;2.72;;;1.17;;
11541;SDS011;5827;49.482;7.716;2022-07-04T12:21:17;2.10;;;1.10;;
11541;SDS011;5827;49.482;7.716;2022-07-04T12:23:22;1.48;;;1.17;;
11541;SDS011;5827;49.482;7.716;2022-07-04T12:25:27;1.45;;;1.00;;
11541;SDS011;5827;49.482;7.716;2022-07-04T12:27:29;1.25;;;1.15;;
11541;SDS011;5827;49.482;7.716;2022-07-04T12:29:31;1.67;;;1.05;;
11541;SDS011;5827;49.482;7.716;2022-07-04T12:31:37;2.35;;;1.30;;
11541;SDS011;5827;49.482;7.716;2022-07-04T12:33:40;1.30;;;1.20;;
11541;SDS011;5827;49.482;7.716;2022-07-04T12:35:55;3.00;;;1.20;;
11541;SDS011;5827;49.482;7.716;2022-07-04T12:38:05;1.75;;;1.25;;
11541;SDS011;5827;49.482;7.716;2022-07-04T12:40:08;2.33;;;1.08;;